sensor_id;sensor_type;location;lat;lon;timestamp;temperature;humidity
22996;DHT22;11664;49.774;8.650;2024-02-23T00:00:06;8.60;99.90
22996;DHT22;11664;49.774;8.650;2024-02-23T00:02:33;8.50;99.90
22996;DHT22;11664;49.774;8.650;2024-02-23T00:05:01;8.50;99.90
22996;DHT22;11664;49.774;8.650;2024-02-23T00:07:27;8.50;99.90
22996;DHT22;11664;49.774;8.650;2024-02-23T00:09:55;8.50;99.90
22996;DHT22;11664;49.774;8.650;2024-02-23T00:12:26;8.50;99.90
22996;DHT22;11664;49.774;8.650;2024-02-23T00:14:52;8.50;99.90
22996;DHT22;11664;49.774;8.650;2024-02-23T00:17:17;8.50;99.90
22996;DHT22;11664;49.774;8.650;2024-02-23T00:19:48;8.40;99.90
22996;DHT22;11664;49.774;8.650;2024-02-23T00:22:17;8.40;99.90
22996;DHT22;11664;49.774;8.650;2024-02-23T00:24:46;8.40;99.90
22996;DHT22;11664;49.774;8.650;2024-02-23T00:27:11;8.30;99.90
22996;DHT22;11664;49.774;8.650;2024-02-23T00:29:43;8.30;99.90
22996;DHT22;11664;49.774;8.650;2024-02-23T00:32:12;8.30;99.90
22996;DHT22;11664;49.774;8.650;2024-02-23T00:35:03;8.20;99.90
22996;DHT22;11664;49.774;8.650;2024-02-23T00:37:28;8.20;99.90
22996;DHT22;11664;49.774;8.650;2024-02-23T00:39:54;8.10;99.90
22996;DHT22;11664;49.774;8.650;2024-02-23T00:42:22;8.10;99.90
22996;DHT22;11664;49.774;8.650;2024-02-23T00:44:48;8.00;99.90
22996;DHT22;11664;49.774;8.650;2024-02-23T00:47:14;7.90;99.90
22996;DHT22;11664;49.774;8.650;2024-02-23T00:49:45;7.80;99.90
22996;DHT22;11664;49.774;8.650;2024-02-23T00:52:11;7.80;99.90
22996;DHT22;11664;49.774;8.650;2024-02-23T00:54:42;7.80;99.90
22996;DHT22;11664;49.774;8.650;2024-02-23T00:57:07;7.70;99.90
22996;DHT22;11664;49.774;8.650;2024-02-23T00:59:33;7.60;99.90
22996;DHT22;11664;49.774;8.650;2024-02-23T01:01:59;7.60;99.90
22996;DHT22;11664;49.774;8.650;2024-02-23T01:04:27;7.50;99.90
22996;DHT22;11664;49.774;8.650;2024-02-23T01:06:53;7.40;99.90
22996;DHT22;11664;49.774;8.650;2024-02-23T01:09:18;7.30;99.90
22996;DHT22;11664;49.774;8.650;2024-02-23T01:11:51;7.40;99.90
22996;DHT22;11664;49.774;8.650;2024-02-23T01:14:17;7.50;99.90
22996;DHT22;11664;49.774;8.650;2024-02-23T01:16:43;7.50;99.90
22996;DHT22;11664;49.774;8.650;2024-02-23T01:19:11;7.50;99.90
22996;DHT22;11664;49.774;8.650;2024-02-23T01:21:43;7.60;99.90
22996;DHT22;11664;49.774;8.650;2024-02-23T01:24:08;7.50;99.90
22996;DHT22;11664;49.774;8.650;2024-02-23T01:26:34;7.40;99.90
22996;DHT22;11664;49.774;8.650;2024-02-23T01:28:59;7.30;99.90
22996;DHT22;11664;49.774;8.650;2024-02-23T01:31:31;7.30;99.90
22996;DHT22;11664;49.774;8.650;2024-02-23T01:34:06;7.30;99.90
22996;DHT22;11664;49.774;8.650;2024-02-23T01:36:31;7.30;99.90
22996;DHT22;11664;49.774;8.650;2024-02-23T01:39:00;7.40;99.90
22996;DHT22;11664;49.774;8.650;2024-02-23T01:41:26;7.50;99.90
22996;DHT22;11664;49.774;8.650;2024-02-23T01:43:57;7.50;99.90
22996;DHT22;11664;49.774;8.650;2024-02-23T01:46:26;7.50;99.90
22996;DHT22;11664;49.774;8.650;2024-02-23T01:48:55;7.40;99.90
22996;DHT22;11664;49.774;8.650;2024-02-23T01:51:24;7.40;99.90
22996;DHT22;11664;49.774;8.650;2024-02-23T01:53:51;7.30;99.90
22996;DHT22;11664;49.774;8.650;2024-02-23T01:56:17;7.30;99.90
22996;DHT22;11664;49.774;8.650;2024-02-23T01:58:48;7.20;99.90
22996;DHT22;11664;49.774;8.650;2024-02-23T02:01:23;7.10;99.90
22996;DHT22;11664;49.774;8.650;2024-02-23T02:03:50;7.10;99.90
22996;DHT22;11664;49.774;8.650;2024-02-23T02:06:15;7.10;99.90
22996;DHT22;11664;49.774;8.650;2024-02-23T02:08:41;7.00;99.90
22996;DHT22;11664;49.774;8.650;2024-02-23T02:11:13;7.00;99.90
22996;DHT22;11664;49.774;8.650;2024-02-23T02:13:39;6.90;99.90
22996;DHT22;11664;49.774;8.650;2024-02-23T02:16:05;6.90;99.90
22996;DHT22;11664;49.774;8.650;2024-02-23T02:18:32;6.80;99.90
22996;DHT22;11664;49.774;8.650;2024-02-23T02:21:04;6.80;99.90
22996;DHT22;11664;49.774;8.650;2024-02-23T02:23:33;6.70;99.90
22996;DHT22;11664;49.774;8.650;2024-02-23T02:26:01;6.70;99.90
22996;DHT22;11664;49.774;8.650;2024-02-23T02:28:31;6.60;99.90
22996;DHT22;11664;49.774;8.650;2024-02-23T02:31:02;6.50;99.90
22996;DHT22;11664;49.774;8.650;2024-02-23T02:33:28;6.40;99.90
22996;DHT22;11664;49.774;8.650;2024-02-23T02:35:54;6.30;99.90
22996;DHT22;11664;49.774;8.650;2024-02-23T02:38:25;6.20;99.90
22996;DHT22;11664;49.774;8.650;2024-02-23T02:40:59;6.10;99.90
22996;DHT22;11664;49.774;8.650;2024-02-23T02:43:28;6.00;99.90
22996;DHT22;11664;49.774;8.650;2024-02-23T02:45:57;5.90;99.90
22996;DHT22;11664;49.774;8.650;2024-02-23T02:48:24;6.00;99.90
22996;DHT22;11664;49.774;8.650;2024-02-23T02:50:55;6.00;99.90
22996;DHT22;11664;49.774;8.650;2024-02-23T02:53:24;6.10;99.90
22996;DHT22;11664;49.774;8.650;2024-02-23T02:55:49;6.10;99.90
22996;DHT22;11664;49.774;8.650;2024-02-23T02:58:21;6.10;99.90
22996;DHT22;11664;49.774;8.650;2024-02-23T03:00:52;6.10;99.90
22996;DHT22;11664;49.774;8.650;2024-02-23T03:03:21;6.00;99.90
22996;DHT22;11664;49.774;8.650;2024-02-23T03:05:50;6.00;99.90
22996;DHT22;11664;49.774;8.650;2024-02-23T03:08:16;6.10;99.90
22996;DHT22;11664;49.774;8.650;2024-02-23T03:10:53;6.00;99.90
22996;DHT22;11664;49.774;8.650;2024-02-23T03:13:22;6.00;99.90
22996;DHT22;11664;49.774;8.650;2024-02-23T03:15:57;6.00;99.90
22996;DHT22;11664;49.774;8.650;2024-02-23T03:18:22;6.10;99.90
22996;DHT22;11664;49.774;8.650;2024-02-23T03:20:54;6.00;99.90
22996;DHT22;11664;49.774;8.650;2024-02-23T03:23:29;6.10;99.90
22996;DHT22;11664;49.774;8.650;2024-02-23T03:25:55;6.10;99.90
22996;DHT22;11664;49.774;8.650;2024-02-23T03:28:24;6.10;99.90
22996;DHT22;11664;49.774;8.650;2024-02-23T03:30:52;6.10;99.90
22996;DHT22;11664;49.774;8.650;2024-02-23T03:33:21;6.10;99.90
22996;DHT22;11664;49.774;8.650;2024-02-23T03:35:49;6.10;99.90
22996;DHT22;11664;49.774;8.650;2024-02-23T03:38:21;6.00;99.90
22996;DHT22;11664;49.774;8.650;2024-02-23T03:40:59;6.00;99.90
22996;DHT22;11664;49.774;8.650;2024-02-23T03:43:28;6.00;99.90
22996;DHT22;11664;49.774;8.650;2024-02-23T03:45:54;6.00;99.90
22996;DHT22;11664;49.774;8.650;2024-02-23T03:48:22;6.00;99.90
22996;DHT22;11664;49.774;8.650;2024-02-23T03:50:57;6.00;99.90
22996;DHT22;11664;49.774;8.650;2024-02-23T03:53:23;5.90;99.90
22996;DHT22;11664;49.774;8.650;2024-02-23T03:55:55;5.90;99.90
22996;DHT22;11664;49.774;8.650;2024-02-23T03:58:26;5.90;99.90
22996;DHT22;11664;49.774;8.650;2024-02-23T04:00:55;5.90;99.90
22996;DHT22;11664;49.774;8.650;2024-02-23T04:03:21;5.90;99.90
22996;DHT22;11664;49.774;8.650;2024-02-23T04:05:46;6.00;99.90
22996;DHT22;11664;49.774;8.650;2024-02-23T04:08:18;6.00;99.90
22996;DHT22;11664;49.774;8.650;2024-02-23T04:10:49;6.00;99.90
22996;DHT22;11664;49.774;8.650;2024-02-23T04:13:15;6.10;99.90
22996;DHT22;11664;49.774;8.650;2024-02-23T04:15:44;6.10;99.90
22996;DHT22;11664;49.774;8.650;2024-02-23T04:18:09;6.10;99.90
22996;DHT22;11664;49.774;8.650;2024-02-23T04:20:35;6.10;99.90
22996;DHT22;11664;49.774;8.650;2024-02-23T04:23:07;6.10;99.90
22996;DHT22;11664;49.774;8.650;2024-02-23T04:25:41;6.10;99.90
22996;DHT22;11664;49.774;8.650;2024-02-23T04:28:10;6.10;99.90
22996;DHT22;11664;49.774;8.650;2024-02-23T04:30:42;6.10;99.90
22996;DHT22;11664;49.774;8.650;2024-02-23T04:33:07;6.10;99.90
22996;DHT22;11664;49.774;8.650;2024-02-23T04:35:33;6.20;99.90
22996;DHT22;11664;49.774;8.650;2024-02-23T04:37:58;6.20;99.90
22996;DHT22;11664;49.774;8.650;2024-02-23T04:40:24;6.10;99.90
22996;DHT22;11664;49.774;8.650;2024-02-23T04:42:49;6.10;99.90
22996;DHT22;11664;49.774;8.650;2024-02-23T04:45:24;6.10;99.90
22996;DHT22;11664;49.774;8.650;2024-02-23T04:47:49;6.10;99.90
22996;DHT22;11664;49.774;8.650;2024-02-23T04:50:15;6.10;99.90
22996;DHT22;11664;49.774;8.650;2024-02-23T04:52:46;6.10;99.90
22996;DHT22;11664;49.774;8.650;2024-02-23T04:55:12;6.10;99.90
22996;DHT22;11664;49.774;8.650;2024-02-23T04:57:44;6.20;99.90
22996;DHT22;11664;49.774;8.650;2024-02-23T05:00:10;6.20;99.90
22996;DHT22;11664;49.774;8.650;2024-02-23T05:02:42;6.20;99.90
22996;DHT22;11664;49.774;8.650;2024-02-23T05:05:08;6.20;99.90
22996;DHT22;11664;49.774;8.650;2024-02-23T05:07:34;6.30;99.90
22996;DHT22;11664;49.774;8.650;2024-02-23T05:10:02;6.30;99.90
22996;DHT22;11664;49.774;8.650;2024-02-23T05:12:32;6.30;99.90
22996;DHT22;11664;49.774;8.650;2024-02-23T05:15:07;6.30;99.90
22996;DHT22;11664;49.774;8.650;2024-02-23T05:17:38;6.30;99.90
22996;DHT22;11664;49.774;8.650;2024-02-23T05:20:07;6.30;99.90
22996;DHT22;11664;49.774;8.650;2024-02-23T05:22:38;6.30;99.90
22996;DHT22;11664;49.774;8.650;2024-02-23T05:25:07;6.30;99.90
22996;DHT22;11664;49.774;8.650;2024-02-23T05:27:42;6.30;99.90
22996;DHT22;11664;49.774;8.650;2024-02-23T05:30:09;6.30;99.90
22996;DHT22;11664;49.774;8.650;2024-02-23T05:32:35;6.40;99.90
22996;DHT22;11664;49.774;8.650;2024-02-23T05:35:01;6.30;99.90
22996;DHT22;11664;49.774;8.650;2024-02-23T05:37:27;6.30;99.90
22996;DHT22;11664;49.774;8.650;2024-02-23T05:39:52;6.30;99.90
22996;DHT22;11664;49.774;8.650;2024-02-23T05:42:22;6.30;99.90
22996;DHT22;11664;49.774;8.650;2024-02-23T05:44:50;6.30;99.90
22996;DHT22;11664;49.774;8.650;2024-02-23T05:47:16;6.30;99.90
22996;DHT22;11664;49.774;8.650;2024-02-23T05:49:48;6.30;99.90
22996;DHT22;11664;49.774;8.650;2024-02-23T05:52:13;6.30;99.90
22996;DHT22;11664;49.774;8.650;2024-02-23T05:54:46;6.30;99.90
22996;DHT22;11664;49.774;8.650;2024-02-23T05:57:11;6.40;99.90
22996;DHT22;11664;49.774;8.650;2024-02-23T05:59:44;6.40;99.90
22996;DHT22;11664;49.774;8.650;2024-02-23T06:02:10;6.40;99.90
22996;DHT22;11664;49.774;8.650;2024-02-23T06:04:36;6.40;99.90
22996;DHT22;11664;49.774;8.650;2024-02-23T06:07:07;6.40;99.90
22996;DHT22;11664;49.774;8.650;2024-02-23T06:09:32;6.40;99.90
22996;DHT22;11664;49.774;8.650;2024-02-23T06:12:05;6.40;99.90
22996;DHT22;11664;49.774;8.650;2024-02-23T06:14:31;6.40;99.90
22996;DHT22;11664;49.774;8.650;2024-02-23T06:16:56;6.30;99.90
22996;DHT22;11664;49.774;8.650;2024-02-23T06:19:22;6.30;99.90
22996;DHT22;11664;49.774;8.650;2024-02-23T06:21:53;6.30;99.90
22996;DHT22;11664;49.774;8.650;2024-02-23T06:24:25;6.40;99.90
22996;DHT22;11664;49.774;8.650;2024-02-23T06:27:04;6.30;99.90
22996;DHT22;11664;49.774;8.650;2024-02-23T06:29:35;6.40;99.90
22996;DHT22;11664;49.774;8.650;2024-02-23T06:32:01;6.40;99.90
22996;DHT22;11664;49.774;8.650;2024-02-23T06:34:31;6.30;99.90
22996;DHT22;11664;49.774;8.650;2024-02-23T06:36:57;6.40;99.90
22996;DHT22;11664;49.774;8.650;2024-02-23T06:39:25;6.40;99.90
22996;DHT22;11664;49.774;8.650;2024-02-23T06:41:52;6.30;99.90
22996;DHT22;11664;49.774;8.650;2024-02-23T06:44:18;6.30;99.90
22996;DHT22;11664;49.774;8.650;2024-02-23T06:46:50;6.30;99.90
22996;DHT22;11664;49.774;8.650;2024-02-23T06:49:15;6.30;99.90
22996;DHT22;11664;49.774;8.650;2024-02-23T06:51:41;6.30;99.90
22996;DHT22;11664;49.774;8.650;2024-02-23T06:54:07;6.20;99.90
22996;DHT22;11664;49.774;8.650;2024-02-23T06:56:33;6.20;99.90
22996;DHT22;11664;49.774;8.650;2024-02-23T06:59:03;6.10;99.90
22996;DHT22;11664;49.774;8.650;2024-02-23T07:01:28;6.10;99.90
22996;DHT22;11664;49.774;8.650;2024-02-23T07:04:03;6.10;99.90
22996;DHT22;11664;49.774;8.650;2024-02-23T07:06:29;6.10;99.90
22996;DHT22;11664;49.774;8.650;2024-02-23T07:09:09;6.10;99.90
22996;DHT22;11664;49.774;8.650;2024-02-23T07:11:34;6.10;99.90
22996;DHT22;11664;49.774;8.650;2024-02-23T07:14:00;6.00;99.90
22996;DHT22;11664;49.774;8.650;2024-02-23T07:16:25;6.00;99.90
22996;DHT22;11664;49.774;8.650;2024-02-23T07:18:57;5.90;99.90
22996;DHT22;11664;49.774;8.650;2024-02-23T07:21:23;5.80;99.90
22996;DHT22;11664;49.774;8.650;2024-02-23T07:23:48;5.70;99.90
22996;DHT22;11664;49.774;8.650;2024-02-23T07:26:14;5.70;99.90
22996;DHT22;11664;49.774;8.650;2024-02-23T07:28:39;5.70;99.90
22996;DHT22;11664;49.774;8.650;2024-02-23T07:31:08;5.70;99.90
22996;DHT22;11664;49.774;8.650;2024-02-23T07:33:37;5.80;99.90
22996;DHT22;11664;49.774;8.650;2024-02-23T07:36:03;5.70;99.90
22996;DHT22;11664;49.774;8.650;2024-02-23T07:38:29;5.70;99.90
22996;DHT22;11664;49.774;8.650;2024-02-23T07:40:54;5.70;99.90
22996;DHT22;11664;49.774;8.650;2024-02-23T07:43:20;5.70;99.90
22996;DHT22;11664;49.774;8.650;2024-02-23T07:45:46;5.70;99.90
22996;DHT22;11664;49.774;8.650;2024-02-23T07:48:14;5.80;99.90
22996;DHT22;11664;49.774;8.650;2024-02-23T07:50:40;5.80;99.90
22996;DHT22;11664;49.774;8.650;2024-02-23T07:53:05;5.90;99.90
22996;DHT22;11664;49.774;8.650;2024-02-23T07:55:40;5.90;99.90
22996;DHT22;11664;49.774;8.650;2024-02-23T07:58:06;5.90;99.90
22996;DHT22;11664;49.774;8.650;2024-02-23T08:00:31;6.10;99.90
22996;DHT22;11664;49.774;8.650;2024-02-23T08:02:57;6.10;99.90
22996;DHT22;11664;49.774;8.650;2024-02-23T08:05:24;6.20;99.90
22996;DHT22;11664;49.774;8.650;2024-02-23T08:07:53;6.30;99.90
22996;DHT22;11664;49.774;8.650;2024-02-23T08:10:18;6.40;99.90
22996;DHT22;11664;49.774;8.650;2024-02-23T08:12:44;6.50;99.90
22996;DHT22;11664;49.774;8.650;2024-02-23T08:15:09;6.60;99.90
22996;DHT22;11664;49.774;8.650;2024-02-23T08:17:35;6.60;99.90
22996;DHT22;11664;49.774;8.650;2024-02-23T08:20:01;6.60;99.90
22996;DHT22;11664;49.774;8.650;2024-02-23T08:22:26;6.70;99.90
22996;DHT22;11664;49.774;8.650;2024-02-23T08:24:52;6.80;99.90
22996;DHT22;11664;49.774;8.650;2024-02-23T08:27:17;6.90;99.90
22996;DHT22;11664;49.774;8.650;2024-02-23T08:29:43;7.00;99.90
22996;DHT22;11664;49.774;8.650;2024-02-23T08:32:09;6.90;99.90
22996;DHT22;11664;49.774;8.650;2024-02-23T08:34:38;6.90;99.90
22996;DHT22;11664;49.774;8.650;2024-02-23T08:37:03;7.00;99.90
22996;DHT22;11664;49.774;8.650;2024-02-23T08:39:32;7.10;99.90
22996;DHT22;11664;49.774;8.650;2024-02-23T08:41:59;7.10;99.90
22996;DHT22;11664;49.774;8.650;2024-02-23T08:44:25;7.10;99.90
22996;DHT22;11664;49.774;8.650;2024-02-23T08:46:50;7.20;99.90
22996;DHT22;11664;49.774;8.650;2024-02-23T08:49:16;7.20;99.90
22996;DHT22;11664;49.774;8.650;2024-02-23T08:51:47;7.20;99.90
22996;DHT22;11664;49.774;8.650;2024-02-23T08:54:22;7.30;99.90
22996;DHT22;11664;49.774;8.650;2024-02-23T08:56:48;7.40;99.90
22996;DHT22;11664;49.774;8.650;2024-02-23T08:59:16;7.40;99.90
22996;DHT22;11664;49.774;8.650;2024-02-23T09:01:57;7.40;99.90
22996;DHT22;11664;49.774;8.650;2024-02-23T09:04:23;7.70;99.90
22996;DHT22;11664;49.774;8.650;2024-02-23T09:06:48;7.90;99.90
22996;DHT22;11664;49.774;8.650;2024-02-23T09:09:24;7.80;99.90
22996;DHT22;11664;49.774;8.650;2024-02-23T09:11:50;7.90;99.90
22996;DHT22;11664;49.774;8.650;2024-02-23T09:14:16;7.90;99.90
22996;DHT22;11664;49.774;8.650;2024-02-23T09:16:41;7.90;99.90
22996;DHT22;11664;49.774;8.650;2024-02-23T09:19:07;7.80;99.90
22996;DHT22;11664;49.774;8.650;2024-02-23T09:21:32;7.90;99.90
22996;DHT22;11664;49.774;8.650;2024-02-23T09:23:58;7.90;99.90
22996;DHT22;11664;49.774;8.650;2024-02-23T09:26:27;8.10;99.90
22996;DHT22;11664;49.774;8.650;2024-02-23T09:29:08;8.10;99.90
22996;DHT22;11664;49.774;8.650;2024-02-23T09:31:34;8.20;99.90
22996;DHT22;11664;49.774;8.650;2024-02-23T09:34:02;8.40;99.90
22996;DHT22;11664;49.774;8.650;2024-02-23T09:36:28;8.40;99.90
22996;DHT22;11664;49.774;8.650;2024-02-23T09:38:55;8.40;99.90
22996;DHT22;11664;49.774;8.650;2024-02-23T09:41:33;8.30;99.90
22996;DHT22;11664;49.774;8.650;2024-02-23T09:44:01;8.20;99.90
22996;DHT22;11664;49.774;8.650;2024-02-23T09:46:27;8.30;99.90
22996;DHT22;11664;49.774;8.650;2024-02-23T09:48:56;8.40;99.90
22996;DHT22;11664;49.774;8.650;2024-02-23T09:51:23;8.30;99.90
22996;DHT22;11664;49.774;8.650;2024-02-23T09:53:52;8.30;99.90
22996;DHT22;11664;49.774;8.650;2024-02-23T09:56:17;8.30;99.90
22996;DHT22;11664;49.774;8.650;2024-02-23T09:58:46;8.30;99.90
22996;DHT22;11664;49.774;8.650;2024-02-23T10:01:18;8.10;99.90
22996;DHT22;11664;49.774;8.650;2024-02-23T10:03:47;8.30;99.90
22996;DHT22;11664;49.774;8.650;2024-02-23T10:06:13;8.50;99.90
22996;DHT22;11664;49.774;8.650;2024-02-23T10:08:42;8.70;99.90
22996;DHT22;11664;49.774;8.650;2024-02-23T10:11:10;8.80;99.90
22996;DHT22;11664;49.774;8.650;2024-02-23T10:13:36;9.00;99.90
22996;DHT22;11664;49.774;8.650;2024-02-23T10:16:05;8.90;99.90
22996;DHT22;11664;49.774;8.650;2024-02-23T10:18:31;9.00;99.90
22996;DHT22;11664;49.774;8.650;2024-02-23T10:21:02;8.90;99.90
22996;DHT22;11664;49.774;8.650;2024-02-23T10:23:29;8.90;99.90
22996;DHT22;11664;49.774;8.650;2024-02-23T10:25:54;8.80;99.90
22996;DHT22;11664;49.774;8.650;2024-02-23T10:28:23;8.70;99.90
22996;DHT22;11664;49.774;8.650;2024-02-23T10:30:51;8.70;99.90
22996;DHT22;11664;49.774;8.650;2024-02-23T10:33:23;8.90;99.90
22996;DHT22;11664;49.774;8.650;2024-02-23T10:35:55;9.20;99.90
22996;DHT22;11664;49.774;8.650;2024-02-23T10:38:22;9.40;99.90
22996;DHT22;11664;49.774;8.650;2024-02-23T10:40:50;9.20;99.90
22996;DHT22;11664;49.774;8.650;2024-02-23T10:43:19;9.30;99.90
22996;DHT22;11664;49.774;8.650;2024-02-23T10:45:46;9.30;99.90
22996;DHT22;11664;49.774;8.650;2024-02-23T10:48:12;9.30;99.90
22996;DHT22;11664;49.774;8.650;2024-02-23T10:50:41;9.30;99.90
22996;DHT22;11664;49.774;8.650;2024-02-23T10:53:09;9.00;99.90
22996;DHT22;11664;49.774;8.650;2024-02-23T10:55:36;9.20;99.90
22996;DHT22;11664;49.774;8.650;2024-02-23T10:58:05;9.00;99.90
22996;DHT22;11664;49.774;8.650;2024-02-23T11:01:00;9.00;99.90
22996;DHT22;11664;49.774;8.650;2024-02-23T11:03:31;9.10;99.90
22996;DHT22;11664;49.774;8.650;2024-02-23T11:05:59;9.10;99.90
22996;DHT22;11664;49.774;8.650;2024-02-23T11:08:29;9.10;99.90
22996;DHT22;11664;49.774;8.650;2024-02-23T11:10:57;9.10;99.90
22996;DHT22;11664;49.774;8.650;2024-02-23T11:13:38;9.30;99.90
22996;DHT22;11664;49.774;8.650;2024-02-23T11:16:04;9.40;99.90
22996;DHT22;11664;49.774;8.650;2024-02-23T11:18:31;9.20;99.90
22996;DHT22;11664;49.774;8.650;2024-02-23T11:21:03;9.30;99.90
22996;DHT22;11664;49.774;8.650;2024-02-23T11:23:48;9.40;99.90
22996;DHT22;11664;49.774;8.650;2024-02-23T11:26:23;9.20;99.90
22996;DHT22;11664;49.774;8.650;2024-02-23T11:28:49;9.20;99.90
22996;DHT22;11664;49.774;8.650;2024-02-23T11:31:22;9.20;99.90
22996;DHT22;11664;49.774;8.650;2024-02-23T11:33:56;9.40;99.90
22996;DHT22;11664;49.774;8.650;2024-02-23T11:36:35;9.50;99.90
22996;DHT22;11664;49.774;8.650;2024-02-23T11:39:04;9.60;99.90
22996;DHT22;11664;49.774;8.650;2024-02-23T11:41:33;9.50;99.90
22996;DHT22;11664;49.774;8.650;2024-02-23T11:44:07;9.70;99.90
22996;DHT22;11664;49.774;8.650;2024-02-23T11:46:35;9.70;99.90
22996;DHT22;11664;49.774;8.650;2024-02-23T11:49:01;9.90;99.90
22996;DHT22;11664;49.774;8.650;2024-02-23T11:51:27;10.00;99.90
22996;DHT22;11664;49.774;8.650;2024-02-23T11:53:57;10.10;99.90
22996;DHT22;11664;49.774;8.650;2024-02-23T11:56:24;10.40;99.90
22996;DHT22;11664;49.774;8.650;2024-02-23T11:58:49;10.30;99.90
22996;DHT22;11664;49.774;8.650;2024-02-23T12:01:15;10.30;99.90
22996;DHT22;11664;49.774;8.650;2024-02-23T12:03:50;10.50;99.90
22996;DHT22;11664;49.774;8.650;2024-02-23T12:06:34;10.80;99.90
22996;DHT22;11664;49.774;8.650;2024-02-23T12:09:01;11.20;99.90
22996;DHT22;11664;49.774;8.650;2024-02-23T12:11:30;11.40;99.90
22996;DHT22;11664;49.774;8.650;2024-02-23T12:13:56;11.20;99.90
22996;DHT22;11664;49.774;8.650;2024-02-23T12:16:22;10.70;99.90
22996;DHT22;11664;49.774;8.650;2024-02-23T12:19:04;10.80;99.90
22996;DHT22;11664;49.774;8.650;2024-02-23T12:21:30;10.20;99.90
22996;DHT22;11664;49.774;8.650;2024-02-23T12:23:55;9.90;99.90
22996;DHT22;11664;49.774;8.650;2024-02-23T12:26:24;10.00;99.90
22996;DHT22;11664;49.774;8.650;2024-02-23T12:29:00;10.40;99.90
22996;DHT22;11664;49.774;8.650;2024-02-23T12:31:26;10.40;99.90
22996;DHT22;11664;49.774;8.650;2024-02-23T12:33:58;10.50;99.90
22996;DHT22;11664;49.774;8.650;2024-02-23T12:36:24;10.40;99.90
22996;DHT22;11664;49.774;8.650;2024-02-23T12:38:49;10.60;99.90
22996;DHT22;11664;49.774;8.650;2024-02-23T12:41:21;10.50;99.90
22996;DHT22;11664;49.774;8.650;2024-02-23T12:43:48;10.70;99.90
22996;DHT22;11664;49.774;8.650;2024-02-23T12:46:13;11.20;99.90
22996;DHT22;11664;49.774;8.650;2024-02-23T12:48:39;11.80;99.90
22996;DHT22;11664;49.774;8.650;2024-02-23T12:51:05;11.60;99.90
22996;DHT22;11664;49.774;8.650;2024-02-23T12:53:46;11.70;99.90
22996;DHT22;11664;49.774;8.650;2024-02-23T12:56:13;11.60;99.90
22996;DHT22;11664;49.774;8.650;2024-02-23T12:58:40;11.70;99.90
22996;DHT22;11664;49.774;8.650;2024-02-23T13:01:10;11.40;99.90
22996;DHT22;11664;49.774;8.650;2024-02-23T13:03:37;11.50;99.90
22996;DHT22;11664;49.774;8.650;2024-02-23T13:06:14;11.00;99.90
22996;DHT22;11664;49.774;8.650;2024-02-23T13:08:40;10.50;99.90
22996;DHT22;11664;49.774;8.650;2024-02-23T13:11:07;9.90;99.90
22996;DHT22;11664;49.774;8.650;2024-02-23T13:13:33;9.60;99.90
22996;DHT22;11664;49.774;8.650;2024-02-23T13:19:23;9.30;99.90
22996;DHT22;11664;49.774;8.650;2024-02-23T13:21:49;11.10;99.90
22996;DHT22;11664;49.774;8.650;2024-02-23T13:24:18;12.00;99.90
22996;DHT22;11664;49.774;8.650;2024-02-23T13:26:43;13.00;99.90
22996;DHT22;11664;49.774;8.650;2024-02-23T13:29:28;12.40;99.90
22996;DHT22;11664;49.774;8.650;2024-02-23T13:31:53;10.80;99.90
22996;DHT22;11664;49.774;8.650;2024-02-23T13:34:25;10.40;99.90
22996;DHT22;11664;49.774;8.650;2024-02-23T13:36:50;10.50;99.90
22996;DHT22;11664;49.774;8.650;2024-02-23T13:39:24;10.60;99.90
22996;DHT22;11664;49.774;8.650;2024-02-23T13:41:52;11.30;99.90
22996;DHT22;11664;49.774;8.650;2024-02-23T13:44:21;10.50;99.90
22996;DHT22;11664;49.774;8.650;2024-02-23T13:46:46;10.70;99.90
22996;DHT22;11664;49.774;8.650;2024-02-23T13:49:12;13.00;99.90
22996;DHT22;11664;49.774;8.650;2024-02-23T13:51:41;11.40;99.90
22996;DHT22;11664;49.774;8.650;2024-02-23T13:54:07;10.70;99.90
22996;DHT22;11664;49.774;8.650;2024-02-23T13:56:36;10.40;99.90
22996;DHT22;11664;49.774;8.650;2024-02-23T13:59:08;10.20;99.90
22996;DHT22;11664;49.774;8.650;2024-02-23T14:01:36;10.10;99.90
22996;DHT22;11664;49.774;8.650;2024-02-23T14:04:06;10.00;99.90
22996;DHT22;11664;49.774;8.650;2024-02-23T14:06:35;10.10;99.90
22996;DHT22;11664;49.774;8.650;2024-02-23T14:09:00;9.90;99.90
22996;DHT22;11664;49.774;8.650;2024-02-23T14:11:37;9.80;99.90
22996;DHT22;11664;49.774;8.650;2024-02-23T14:14:05;9.30;99.90
22996;DHT22;11664;49.774;8.650;2024-02-23T14:16:31;9.10;99.90
22996;DHT22;11664;49.774;8.650;2024-02-23T14:18:56;8.70;99.90
22996;DHT22;11664;49.774;8.650;2024-02-23T14:21:22;8.60;99.90
22996;DHT22;11664;49.774;8.650;2024-02-23T14:23:53;8.50;99.90
22996;DHT22;11664;49.774;8.650;2024-02-23T14:26:19;8.50;99.90
22996;DHT22;11664;49.774;8.650;2024-02-23T14:28:50;8.50;99.90
22996;DHT22;11664;49.774;8.650;2024-02-23T14:31:16;8.20;99.90
22996;DHT22;11664;49.774;8.650;2024-02-23T14:33:41;8.10;99.90
22996;DHT22;11664;49.774;8.650;2024-02-23T14:36:07;8.10;99.90
22996;DHT22;11664;49.774;8.650;2024-02-23T14:38:36;8.20;99.90
22996;DHT22;11664;49.774;8.650;2024-02-23T14:41:04;8.50;99.90
22996;DHT22;11664;49.774;8.650;2024-02-23T14:43:31;9.00;99.90
22996;DHT22;11664;49.774;8.650;2024-02-23T14:45:59;9.50;99.90
22996;DHT22;11664;49.774;8.650;2024-02-23T14:48:25;10.60;99.90
22996;DHT22;11664;49.774;8.650;2024-02-23T14:50:56;10.70;99.90
22996;DHT22;11664;49.774;8.650;2024-02-23T14:53:29;11.60;99.90
22996;DHT22;11664;49.774;8.650;2024-02-23T14:56:13;13.10;99.90
22996;DHT22;11664;49.774;8.650;2024-02-23T14:58:42;11.80;99.90
22996;DHT22;11664;49.774;8.650;2024-02-23T15:01:16;11.30;99.90
22996;DHT22;11664;49.774;8.650;2024-02-23T15:03:51;10.30;99.90
22996;DHT22;11664;49.774;8.650;2024-02-23T15:06:25;12.10;99.90
22996;DHT22;11664;49.774;8.650;2024-02-23T15:08:55;12.40;99.90
22996;DHT22;11664;49.774;8.650;2024-02-23T15:11:24;13.00;99.90
22996;DHT22;11664;49.774;8.650;2024-02-23T15:13:53;14.70;99.90
22996;DHT22;11664;49.774;8.650;2024-02-23T15:16:28;14.90;99.90
22996;DHT22;11664;49.774;8.650;2024-02-23T15:18:56;14.90;99.90
22996;DHT22;11664;49.774;8.650;2024-02-23T15:21:34;13.50;99.90
22996;DHT22;11664;49.774;8.650;2024-02-23T15:24:05;11.30;99.90
22996;DHT22;11664;49.774;8.650;2024-02-23T15:26:37;12.70;99.90
22996;DHT22;11664;49.774;8.650;2024-02-23T15:29:09;11.50;99.90
22996;DHT22;11664;49.774;8.650;2024-02-23T15:31:38;11.00;99.90
22996;DHT22;11664;49.774;8.650;2024-02-23T15:34:05;10.10;99.90
22996;DHT22;11664;49.774;8.650;2024-02-23T15:36:31;10.60;99.90
22996;DHT22;11664;49.774;8.650;2024-02-23T15:39:12;12.60;99.90
22996;DHT22;11664;49.774;8.650;2024-02-23T15:41:40;13.10;99.90
22996;DHT22;11664;49.774;8.650;2024-02-23T15:44:06;13.00;99.90
22996;DHT22;11664;49.774;8.650;2024-02-23T15:46:34;11.40;99.90
22996;DHT22;11664;49.774;8.650;2024-02-23T15:49:03;9.90;99.90
22996;DHT22;11664;49.774;8.650;2024-02-23T15:51:37;9.70;99.90
22996;DHT22;11664;49.774;8.650;2024-02-23T15:54:21;10.80;99.90